Adolphus, KY

10:38 PM CDT on July 24, 2014 (GMT -0500)
Plano (KKYBOWLI8) Elev 630 ft | 36.87 °N, 86.41 °W | Change Station

Current weather conditions updated 0 second ago

Clear
Clear
65.0 °F
Feels Like 65.0 °F
N
0.0
Wind Variable Wind from North
Gusts 0.0 mph

Tomorrow is forecast to be nearly the same temperature as today.

Today
High -- | Low -- °F
--% Chance of Precip.
Yesterday
High -- | Low -- °F
Precip. -- in
5:44 AM 7:58 PM
Waning Crescent, 3% visible
Pressure 30.03 in
Visibility 10.0 miles
Clouds Clear
Dew Point 61 °F
Humidity 87%
Rainfall 0.00 in
Snow Depth Not available.
UV 0 out of 12
Pollen 3.40 out of 12
Air Quality Not available.
Flu Activity Not available.
METAR KBWG 250253Z AUTO 06003KT 10SM CLR 20/13 A3004 RMK AO2 SLP169 T02000128 51017

More Conditions Fewer Conditions

Pressure 30.03 in
Visibility 10.0 miles
Clouds Clear
Dew Point 61 °F
Humidity 87%
Rainfall 0.00 in
Snow Depth Not available.
UV 0 out of 12
Pollen 3.40 out of 12
Air Quality Not available.
Flu Activity Not available.
METAR KBWG 250253Z AUTO 06003KT 10SM CLR 20/13 A3004 RMK AO2 SLP169 T02000128 51017

More Conditions Fewer Conditions

10-Day Weather Forecast

Almanac

Astronomy

Jul. 24, 2014 Rise Set
Actual Time 5:44 AM CDT 7:58 PM CDT
Civil Twilight 5:15 AM CDT 8:27 PM CDT
Nautical Twilight 4:39 AM CDT 9:02 PM CDT
Astronomical Twilight 4:00 AM CDT 9:41 PM CDT
Moon 3:51 AM CDT (7/24) 6:13 PM CDT (7/24)
Length of Visible Light 15h 11m
Length of Day
14h 13m
Tomorrow will be 1m 31s shorter.
Waning Crescent, 3% of the Moon is Illuminated
Today
Waning Crescent
Jul 26
New
Aug 3
First Quarter
Aug 10
Full
Aug 17
Last Quarter

Today's Extremes

State Highs State Lows

Community

WunderPhotos

Upload Photos

1,737,228 photos uploaded!

Nearby

Snow Depth

Station Depth Elevation
No new snow has been reported.

Earthquake Activity

City Distance Mag. Time & Date
No recent earthquake activity has been reported nearby.
Minimum magnitude displayed is 2.5.

Coastal Water Temperatures

Place Temperature
No Stations Reporting

Nearby Weather Stations

Station Location Temp. Heat Index Dew Point Humidity Wind Precip. Elev Updated Type
Plano, Bowling Green, KY 65.0 °F - 61 °F 87% North  at  0.0 mph 0.00 in / hr 630 ft 10:38 PM CDT Rapid Fire
Blackmore Cemetery, Gallatin, TN 67.6 °F - 59 °F 74% ENE  at  0.0 mph - / hr 574 ft 10:33 PM CDT Normal
Pumpkintown, Red Boiling Springs, TN 63.0 °F - 60 °F 89% ENE  at  0.0 mph 0.00 in / hr 902 ft 11:35 PM EDT Normal
Cummings Lane, Gallatin, TN 67.6 °F - 58 °F 71% NE  at  0.0 mph 0.00 in / hr 627 ft 10:38 PM CDT Rapid Fire
Foxfire 2 Subdivision, Gallatin, TN 70.9 °F 76 °F 57 °F 62% East  at  0.0 mph 0.00 in / hr 479 ft 10:38 PM CDT Rapid Fire
Cross Plains, TN, Cross Plains, TN 69.6 °F - 57 °F 65% ENE  at  1.1 mph - / hr 797 ft 10:28 PM CDT Normal
10 house subdivision - old Atkins Farm, Cross Plains, TN 63.5 °F - 58 °F 83% NW  at  0.0 mph - / hr 643 ft 10:28 PM CDT Normal

Show More Stations Show Fewer Stations